メインページ
METAR-TAF:

METAR-TAF

空港 :

Penticton, ブリティッシュコロンビア州, カナダ

緯度: 49-28N, 経度: 119-36W, 海抜: 344m

現時点の気象観測

当レポートは29分前の17:45(UTC)に作成
南/南東の風 14kt、最大19ktの突風を伴う
気温 9°C
湿度 81%
気圧 1016 hPa
視程: 24.1km
高度2200ftの千切れ雲あり
高度4500ftの千切れ雲あり

METAR: CYYF 171745Z 16014G19KT 15SM BKN022 BKN045 09/06 A3001 RMK SC6CU1 SLP171

時間: 10:14 (18:14 UTC)

予報

当レポートは1時間57分前の16:17(UTC)に作成
予報は17日の 16時(UTC)から 18日の 01時(UTC)まで有効
の風 12kt、最大22ktの突風を伴う
視程: 10km
高度2000ftの雲は散在している
高度4000ftの千切れ雲あり
17日の 16時(UTC)から 17日の 22時(UTC)まで一時的に
視程: 10km
高度2000ftの千切れ雲あり
高度3000ftの曇り
小雨
17日の 2200時(UTC)から
の風 12kt
視程: 10km
高度2000ftの雲は散在している
確率 30%
17日の 22時(UTC)から 18日の 01時(UTC)まで
高度2000ftの千切れ雲あり

TAF: CYYF 171617Z 1716/1801 18012G22KT P6SM SCT020 BKN040 TEMPO 1716/1722 P6SM -RA BKN020 OVC030 FM172200 18012KT P6SM SCT020 PROB30 1722/1801 BKN020 RMK NXT FCST BY 171900Z

4,000以上の空港の気象観測と天気予報(METAR報とTAF報)

利用可能な観測所は地図上に黄色い丸と赤い丸で示す。

丸の上にカーソルを重ねると観測所名を参照できる。

次にクリックすると気象観測と天気予報を参照できる。

マップの切り替え:黒色「×」印の緑ボタンをクリックして拡大、「-」印の緑ボタンをクリックして縮小、緑色の三角印をクリックして隣りの地図に切り替え


METAR-TAF: